Time;durP1;ratioP1;P1;durP2;ratioP2;P2;SDS_P1;SDS_P2;PMS_P1;PMS_P2;Temp;Humidity;BMP_temperature;BMP_pressure;BME280_temperature;BME280_humidity;BME280_pressure;Samples;Min_cycle;Max_cycle;Signal;HPM_P1;HPM_P2
2024/04/09 00:02:04;;;;;;;11.73;5.30;;;;;;;17.73;76.85;100167.69;9099387;26;20115;-79
2024/04/09 00:06:14;;;;;;;14.55;4.97;;;;;;;17.85;77.52;100164.09;9070106;26;20010;-79
2024/04/09 00:10:19;;;;;;;14.77;5.70;;;;;;;17.83;77.80;100172.47;9065745;26;20363;-78
2024/04/09 00:14:21;;;;;;;10.38;5.20;;;;;;;17.57;80.14;100170.25;9094850;26;20340;-78
2024/04/09 00:18:24;;;;;;;13.93;5.70;;;;;;;17.36;79.06;100168.97;9093064;26;20010;-78
2024/04/09 00:22:27;;;;;;;9.90;5.65;;;;;;;17.66;76.71;100168.81;9095425;26;20025;-78
2024/04/09 00:26:31;;;;;;;10.70;6.60;;;;;;;17.80;75.68;100174.84;9063588;26;20353;-78
2024/04/09 00:30:34;;;;;;;12.02;6.90;;;;;;;17.33;78.75;100172.13;9095730;26;20017;-78
2024/04/09 00:34:36;;;;;;;14.05;6.38;;;;;;;17.38;80.19;100169.56;9114673;26;19998;-78
2024/04/09 00:38:40;;;;;;;15.93;6.38;;;;;;;17.18;82.86;100176.13;9096019;26;20038;-78
2024/04/09 00:42:42;;;;;;;15.90;6.88;;;;;;;17.05;83.25;100165.53;9097245;26;20002;-77
2024/04/09 00:46:46;;;;;;;9.10;5.53;;;;;;;17.16;84.04;100169.28;9115140;26;20017;-78
2024/04/09 00:50:50;;;;;;;10.18;6.50;;;;;;;17.02;83.79;100168.69;9083008;26;19994;-78
2024/04/09 00:54:53;;;;;;;14.98;6.30;;;;;;;16.96;83.76;100163.38;9094777;26;20006;-78
2024/04/09 00:58:54;;;;;;;12.30;6.00;;;;;;;16.85;85.73;100154.19;9093429;26;20036;-78
2024/04/09 01:02:56;;;;;;;16.05;6.25;;;;;;;16.76;86.05;100159.09;9094289;26;20006;-78
2024/04/09 01:06:58;;;;;;;14.60;6.57;;;;;;;16.66;87.95;100160.66;9095762;26;20012;-78
2024/04/09 01:10:59;;;;;;;8.80;6.03;;;;;;;16.72;86.80;100168.75;9092493;26;20010;-78
2024/04/09 01:15:02;;;;;;;14.88;7.30;;;;;;;16.52;88.27;100160.88;9091925;26;20481;-78
2024/04/09 01:19:04;;;;;;;16.15;7.78;;;;;;;16.48;88.05;100159.66;9090121;26;20037;-78
2024/04/09 01:23:06;;;;;;;15.95;6.75;;;;;;;16.55;88.58;100157.72;9089497;26;20002;-78
2024/04/09 01:27:13;;;;;;;19.63;7.38;;;;;;;16.73;86.54;100158.75;9089927;26;20034;-78
2024/04/09 01:31:15;;;;;;;14.95;6.40;;;;;;;16.74;87.26;100160.38;9091812;26;20002;-78
2024/04/09 01:35:18;;;;;;;16.17;7.07;;;;;;;16.78;87.16;100156.97;9090483;26;20002;-78
2024/04/09 01:39:20;;;;;;;13.02;6.35;;;;;;;16.55;88.70;100157.72;9091913;26;20080;-78
2024/04/09 01:43:22;;;;;;;15.63;7.00;;;;;;;16.65;87.63;100148.22;9091925;26;20074;-78
2024/04/09 01:47:24;;;;;;;13.85;6.47;;;;;;;16.59;88.66;100150.78;9103138;26;20074;-78
2024/04/09 01:51:26;;;;;;;11.70;6.53;;;;;;;16.73;87.60;100154.16;9100981;26;20021;-78
2024/04/09 01:55:27;;;;;;;9.50;6.13;;;;;;;16.75;88.36;100153.94;9065826;26;20349;-78
2024/04/09 01:59:32;;;;;;;12.02;6.75;;;;;;;16.40;92.48;100162.72;9065445;26;20034;-78
2024/04/09 02:03:34;;;;;;;9.70;6.32;;;;;;;16.51;90.78;100153.84;9036934;26;20519;-78
2024/04/09 02:07:37;;;;;;;12.25;7.18;;;;;;;16.28;93.12;100157.25;9035118;26;20404;-78
2024/04/09 02:11:38;;;;;;;12.43;6.63;;;;;;;16.33;93.29;100163.88;9073585;26;20006;-77
2024/04/09 02:15:40;;;;;;;10.68;6.65;;;;;;;16.25;94.17;100162.28;9095417;26;20074;-78
2024/04/09 02:19:42;;;;;;;11.88;6.70;;;;;;;16.49;91.80;100158.66;9101110;26;20002;-78
2024/04/09 02:23:44;;;;;;;19.67;8.13;;;;;;;16.26;93.50;100155.81;9074822;26;20331;-79
2024/04/09 02:27:46;;;;;;;14.77;7.47;;;;;;;16.29;94.10;100158.91;9099474;26;20014;-78
2024/04/09 02:31:47;;;;;;;12.60;7.22;;;;;;;16.46;92.15;100150.16;9098985;26;20002;-77
2024/04/09 02:35:56;;;;;;;12.25;7.10;;;;;;;16.35;93.93;100149.06;9156686;26;20028;-78
2024/04/09 02:39:58;;;;;;;13.18;7.47;;;;;;;16.35;93.87;100150.94;9154853;26;20004;-77
2024/04/09 02:44:00;;;;;;;13.27;7.40;;;;;;;16.35;94.22;100149.06;9154296;26;20014;-77
2024/04/09 02:48:02;;;;;;;10.85;6.95;;;;;;;16.28;95.29;100142.91;9129806;26;19998;-78
2024/04/09 02:52:04;;;;;;;17.10;7.95;;;;;;;16.19;96.04;100145.13;9094368;26;20016;-77
2024/04/09 02:56:08;;;;;;;15.70;7.85;;;;;;;16.07;97.32;100138.81;9087923;26;20363;-77
2024/04/09 03:00:15;;;;;;;11.63;7.90;;;;;;;16.19;96.43;100136.19;9088465;26;20074;-78
2024/04/09 03:04:17;;;;;;;14.15;8.18;;;;;;;15.93;98.41;100127.34;9089735;26;20002;-77
2024/04/09 03:08:20;;;;;;;16.75;8.32;;;;;;;15.92;98.85;100143.78;9093713;26;20013;-78
2024/04/09 03:12:22;;;;;;;13.50;8.20;;;;;;;15.94;98.16;100142.50;9094408;26;20013;-79
2024/04/09 03:16:23;;;;;;;16.33;8.32;;;;;;;15.91;98.44;100142.97;9093480;26;20017;-77
2024/04/09 03:20:25;;;;;;;12.20;8.10;;;;;;;15.95;97.87;100137.91;9090600;26;20129;-78
2024/04/09 03:24:27;;;;;;;11.15;7.38;;;;;;;15.90;97.79;100140.50;9103542;26;20434;-78
2024/04/09 03:28:28;;;;;;;11.57;7.95;;;;;;;15.65;100.00;100135.19;9100895;26;20011;-78
2024/04/09 03:32:31;;;;;;;14.55;7.40;;;;;;;15.54;100.00;100133.19;9105453;26;20375;-78
2024/04/09 03:36:33;;;;;;;13.82;6.60;;;;;;;15.72;100.00;100141.31;9099578;26;20010;-77
2024/04/09 03:40:34;;;;;;;15.93;7.88;;;;;;;15.75;100.00;100134.63;9090483;26;20051;-78
2024/04/09 03:44:36;;;;;;;12.75;7.75;;;;;;;15.60;100.00;100129.59;9040506;26;20022;-77
2024/04/09 03:48:43;;;;;;;12.05;6.82;;;;;;;15.52;100.00;100127.19;9048490;26;20392;-77
2024/04/09 03:52:48;;;;;;;13.00;7.88;;;;;;;15.67;100.00;100119.56;9095306;26;20006;-78
2024/04/09 03:56:50;;;;;;;12.10;7.07;;;;;;;15.58;100.00;100120.88;9099234;26;19998;-78
2024/04/09 04:01:00;;;;;;;15.82;7.45;;;;;;;15.47;100.00;100119.75;9096440;26;20144;-78
2024/04/09 04:05:05;;;;;;;14.68;7.18;;;;;;;15.51;100.00;100112.03;9093329;26;20032;-77
2024/04/09 04:09:08;;;;;;;11.98;7.68;;;;;;;15.35;100.00;100110.75;9098536;26;20006;-77
2024/04/09 04:13:10;;;;;;;13.55;7.53;;;;;;;15.49;100.00;100111.44;9093621;26;20002;-77
2024/04/09 04:17:12;;;;;;;11.27;6.85;;;;;;;15.27;100.00;100106.47;9093356;26;20006;-78
2024/04/09 04:21:25;;;;;;;12.57;7.38;;;;;;;15.39;100.00;100101.16;9092966;26;20015;-78
2024/04/09 04:25:26;;;;;;;13.27;7.57;;;;;;;15.30;100.00;100105.19;9094336;26;20044;-78
2024/04/09 04:29:28;;;;;;;15.50;8.02;;;;;;;15.42;100.00;100108.78;9095077;26;20059;-77
2024/04/09 04:33:30;;;;;;;11.95;7.28;;;;;;;15.38;100.00;100099.50;9095504;26;20334;-80
2024/04/09 04:37:33;;;;;;;10.80;7.55;;;;;;;15.44;100.00;100097.75;9061924;26;20002;-78
2024/04/09 04:41:36;;;;;;;13.73;7.20;;;;;;;15.32;100.00;100098.53;9094009;26;20051;-78
2024/04/09 04:45:37;;;;;;;16.90;8.25;;;;;;;15.16;100.00;100095.56;9096257;26;20096;-78
2024/04/09 04:49:39;;;;;;;14.38;7.97;;;;;;;15.57;100.00;100098.44;9106273;26;19998;-79
2024/04/09 04:53:41;;;;;;;13.52;7.47;;;;;;;15.36;100.00;100090.81;9089607;26;20012;-78
2024/04/09 04:57:43;;;;;;;9.95;7.60;;;;;;;15.44;100.00;100087.78;9091944;26;20038;-79
2024/04/09 05:01:45;;;;;;;13.25;7.93;;;;;;;15.64;100.00;100083.06;9091322;26;20021;-78
2024/04/09 05:05:47;;;;;;;12.02;7.85;;;;;;;15.28;100.00;100083.84;9095354;26;20048;-77
2024/04/09 05:09:48;;;;;;;14.25;7.07;;;;;;;15.70;100.00;100083.19;9098446;26;20389;-77
2024/04/09 05:13:52;;;;;;;12.00;7.45;;;;;;;16.09;100.00;100090.78;9097499;26;20030;-78
2024/04/09 05:17:54;;;;;;;65.35;47.50;;;;;;;15.89;100.00;100085.63;9099070;26;20021;-78
2024/04/09 05:21:55;;;;;;;15.75;8.30;;;;;;;16.18;100.00;100084.00;9066624;26;20130;-78
2024/04/09 05:25:57;;;;;;;13.48;7.38;;;;;;;15.84;100.00;100082.81;9094271;26;20006;-77
2024/04/09 05:29:59;;;;;;;17.58;7.57;;;;;;;16.15;100.00;100084.47;9065258;26;20002;-78
2024/04/09 05:34:01;;;;;;;9.70;6.95;;;;;;;16.19;100.00;100082.97;9067641;26;20002;-78
2024/04/09 05:38:03;;;;;;;18.70;7.43;;;;;;;15.86;100.00;100085.28;9099464;26;20040;-79
2024/04/09 05:42:05;;;;;;;10.60;7.28;;;;;;;15.76;100.00;100084.97;9098700;26;20005;-78
2024/04/09 05:46:07;;;;;;;14.30;7.55;;;;;;;16.08;100.00;100091.84;9067415;26;20006;-79
2024/04/09 05:50:09;;;;;;;17.00;6.97;;;;;;;16.36;100.00;100090.41;9062564;26;20047;-79
2024/04/09 05:54:10;;;;;;;17.40;7.72;;;;;;;16.49;100.00;100092.94;9064941;26;20446;-78
2024/04/09 05:58:12;;;;;;;10.20;6.78;;;;;;;16.47;100.00;100089.59;9065113;26;20052;-80
2024/04/09 06:02:14;;;;;;;20.67;7.05;;;;;;;16.99;100.00;100089.84;9104216;26;20106;-78
2024/04/09 06:06:15;;;;;;;10.27;6.72;;;;;;;17.38;98.49;100102.69;9112215;26;20009;-78
2024/04/09 06:10:18;;;;;;;14.75;7.20;;;;;;;17.11;100.00;100094.22;9135434;26;20002;-78
2024/04/09 06:14:21;;;;;;;15.45;7.18;;;;;;;17.12;99.99;100085.03;9085470;26;20054;-78
2024/04/09 06:18:23;;;;;;;12.10;6.25;;;;;;;17.23;98.22;100090.69;9117694;26;20013;-78
2024/04/09 06:22:25;;;;;;;10.60;7.47;;;;;;;17.34;99.19;100085.25;9120431;26;19998;-78
2024/04/09 06:26:28;;;;;;;13.15;7.55;;;;;;;17.43;98.02;100091.97;9119532;26;20017;-78
2024/04/09 06:30:30;;;;;;;14.95;6.78;;;;;;;17.66;96.40;100085.66;9170464;26;20001;-78
2024/04/09 06:34:31;;;;;;;9.07;6.88;;;;;;;17.58;95.32;100091.47;9165947;26;20020;-77
2024/04/09 06:38:36;;;;;;;15.90;7.80;;;;;;;17.82;93.13;100099.56;9121972;26;20014;-77
2024/04/09 06:42:37;;;;;;;15.57;8.23;;;;;;;17.93;92.24;100090.59;9119382;26;20009;-78
2024/04/09 06:46:39;;;;;;;16.52;8.00;;;;;;;17.81;94.92;100101.44;9051870;26;20010;-78
2024/04/09 06:50:41;;;;;;;14.80;7.10;;;;;;;18.37;89.84;100080.84;9115714;26;20005;-78
2024/04/09 06:54:43;;;;;;;13.43;6.25;;;;;;;18.60;88.71;100074.47;9121194;26;20046;-77
2024/04/09 06:58:47;;;;;;;13.10;5.60;;;;;;;18.83;84.34;100073.50;9123827;26;20051;-78
2024/04/09 07:02:49;;;;;;;8.30;5.90;;;;;;;18.95;84.78;100075.06;9093806;26;20006;-79
2024/04/09 07:06:52;;;;;;;9.50;5.03;;;;;;;18.79;85.66;100067.75;9117952;26;20012;-78
2024/04/09 07:10:57;;;;;;;12.60;5.82;;;;;;;18.95;84.36;100066.94;9123219;26;20013;-78
2024/04/09 07:15:03;;;;;;;17.95;6.18;;;;;;;19.12;84.24;100064.19;9092154;26;20008;-78
2024/04/09 07:19:05;;;;;;;10.52;5.50;;;;;;;19.37;83.27;100057.47;9109337;26;19998;-79
2024/04/09 07:23:07;;;;;;;8.25;5.85;;;;;;;19.51;83.44;100046.00;9107123;26;20383;-80
2024/04/09 07:27:12;;;;;;;12.20;4.80;;;;;;;19.69;79.31;100050.31;9104843;26;19998;-78
2024/04/09 07:31:15;;;;;;;10.25;4.80;;;;;;;19.94;77.30;100052.50;9104777;26;20010;-78
2024/04/09 07:35:17;;;;;;;9.95;4.22;;;;;;;20.05;75.74;100054.25;9096295;26;20353;-79
2024/04/09 07:39:18;;;;;;;12.30;4.63;;;;;;;20.34;73.75;100063.00;9071909;26;20002;-79
2024/04/09 07:43:20;;;;;;;11.52;4.10;;;;;;;20.44;71.32;100052.22;9080031;26;20002;-79
2024/04/09 07:47:22;;;;;;;6.30;4.07;;;;;;;20.55;70.13;100050.41;9102550;26;20002;-80
2024/04/09 07:51:24;;;;;;;7.90;4.00;;;;;;;20.69;69.61;100048.09;9111021;26;20046;-79
2024/04/09 07:55:26;;;;;;;10.15;4.53;;;;;;;20.78;66.95;100051.97;9112412;26;19998;-80
2024/04/09 07:59:27;;;;;;;11.40;3.47;;;;;;;20.75;68.28;100041.59;9075633;26;20026;-79
2024/04/09 08:03:29;;;;;;;10.68;3.88;;;;;;;21.12;66.75;100035.31;9112404;26;20359;-80
2024/04/09 08:07:31;;;;;;;9.32;3.90;;;;;;;21.17;66.05;100027.97;9075561;26;20040;-80
2024/04/09 08:11:33;;;;;;;11.68;4.18;;;;;;;21.35;65.37;100030.31;9075447;26;20002;-80
2024/04/09 08:15:36;;;;;;;9.35;3.67;;;;;;;21.54;64.16;100025.22;9106199;26;20022;-80
2024/04/09 08:19:37;;;;;;;9.52;4.32;;;;;;;21.84;62.75;100032.66;9104799;26;20021;-81
2024/04/09 08:23:39;;;;;;;10.82;4.05;;;;;;;22.01;64.10;100023.44;9073557;26;20001;-80
2024/04/09 08:27:42;;;;;;;7.45;4.18;;;;;;;22.04;61.63;100029.19;9104730;26;20002;-79
2024/04/09 08:31:44;;;;;;;16.30;4.25;;;;;;;22.39;63.96;100022.16;9071820;26;20022;-78
2024/04/09 08:35:48;;;;;;;18.13;4.25;;;;;;;22.21;62.15;100016.13;9108360;26;20030;-79
2024/04/09 08:39:54;;;;;;;7.28;3.80;;;;;;;22.46;60.77;100023.53;9098277;26;20002;-79
2024/04/09 08:43:58;;;;;;;5.65;3.30;;;;;;;22.38;59.78;100017.78;9104928;26;20372;-79
2024/04/09 08:48:02;;;;;;;6.35;3.35;;;;;;;22.69;60.36;100019.44;9077630;26;20047;-79
2024/04/09 08:52:04;;;;;;;8.60;3.45;;;;;;;22.81;59.50;100014.50;9109983;26;20048;-79
2024/04/09 08:56:06;;;;;;;4.63;3.25;;;;;;;22.99;58.07;100012.31;9106238;26;20005;-80
2024/04/09 09:00:08;;;;;;;5.03;3.50;;;;;;;23.25;58.12;100010.34;9105275;26;20438;-80
2024/04/09 09:04:11;;;;;;;6.35;3.97;;;;;;;23.37;56.38;100011.66;9072388;26;20016;-80
2024/04/09 09:08:14;;;;;;;10.07;3.90;;;;;;;23.58;57.28;100015.16;9103445;26;20002;-81
2024/04/09 09:12:16;;;;;;;9.98;3.40;;;;;;;23.61;56.10;100000.13;9072837;26;20034;-80
2024/04/09 09:16:18;;;;;;;5.63;2.95;;;;;;;24.02;54.67;99993.31;9071825;26;20047;-80
2024/04/09 09:20:20;;;;;;;5.78;3.28;;;;;;;23.97;55.07;100001.56;9102899;26;20010;-81
2024/04/09 09:24:22;;;;;;;5.47;3.22;;;;;;;24.41;55.66;99994.44;9104832;26;20322;-79
2024/04/09 09:28:26;;;;;;;8.27;3.67;;;;;;;24.34;54.14;100002.97;9074055;26;20017;-80
2024/04/09 09:32:28;;;;;;;6.35;3.13;;;;;;;24.43;52.92;100005.91;9073494;26;20002;-81
2024/04/09 09:36:31;;;;;;;6.90;3.50;;;;;;;24.32;53.73;100003.28;9073421;26;20002;-80
2024/04/09 09:40:33;;;;;;;11.23;3.42;;;;;;;24.63;52.95;99981.91;9103123;26;19998;-80
2024/04/09 09:44:36;;;;;;;7.13;3.20;;;;;;;25.21;52.17;99995.59;9103149;26;20367;-81
2024/04/09 09:48:40;;;;;;;7.20;4.20;;;;;;;25.75;50.42;99997.13;9074838;26;20046;-79
2024/04/09 09:52:45;;;;;;;8.73;4.15;;;;;;;25.78;50.17;99988.31;9109448;26;20014;-80
2024/04/09 09:56:49;;;;;;;8.00;3.30;;;;;;;26.13;48.51;99975.19;9106318;26;20013;-80
2024/04/09 10:00:52;;;;;;;6.07;2.92;;;;;;;25.47;50.27;99981.56;9105927;26;20010;-80
2024/04/09 10:04:59;;;;;;;8.98;2.90;;;;;;;25.76;50.06;99981.50;9093659;26;19998;-79
2024/04/09 10:09:07;;;;;;;5.88;3.08;;;;;;;25.73;49.35;99982.91;9101369;26;20002;-80
2024/04/09 10:13:10;;;;;;;10.48;3.13;;;;;;;25.85;49.31;99983.25;9103221;26;20006;-80
2024/04/09 10:17:12;;;;;;;7.45;2.97;;;;;;;26.12;48.62;99973.53;9069003;26;20017;-80
2024/04/09 10:21:26;;;;;;;6.55;2.90;;;;;;;26.82;46.15;99978.97;9108973;26;20008;-80
2024/04/09 10:25:35;;;;;;;7.60;3.72;;;;;;;26.97;46.53;99978.69;9109533;26;20013;-80
2024/04/09 10:29:37;;;;;;;10.20;3.22;;;;;;;27.35;45.24;99975.75;9120506;26;20022;-80
2024/04/09 10:33:39;;;;;;;9.18;2.90;;;;;;;26.95;45.04;99971.88;9113810;26;20013;-79
2024/04/09 10:37:43;;;;;;;10.85;3.33;;;;;;;27.50;42.54;99969.13;9107987;26;20460;-80
2024/04/09 10:41:53;;;;;;;10.38;3.15;;;;;;;27.76;42.14;99970.22;9106337;26;20030;-80
2024/04/09 10:45:56;;;;;;;24.38;9.23;;;;;;;26.94;44.11;99973.00;9108350;26;20002;-80
2024/04/09 10:50:17;;;;;;;;;;;;;;;26.70;43.27;99978.63;9056352;26;20002;-81
2024/04/09 10:54:19;;;;;;;11.50;3.92;;;;;;;26.97;43.00;99980.63;9109011;26;19932;-80
2024/04/09 10:58:21;;;;;;;12.82;3.88;;;;;;;26.52;45.36;99983.06;9077786;26;20014;-80
2024/04/09 11:02:22;;;;;;;34.42;5.50;;;;;;;26.22;44.92;99989.06;9108611;26;20042;-79
2024/04/09 11:06:26;;;;;;;11.00;3.63;;;;;;;26.96;43.92;99990.00;9075178;26;20424;-80
2024/04/09 11:10:28;;;;;;;7.88;3.22;;;;;;;26.64;44.72;99988.09;9108535;26;20014;-79
2024/04/09 11:14:31;;;;;;;10.63;3.38;;;;;;;27.30;43.94;99978.63;9108669;26;20002;-80
2024/04/09 11:18:32;;;;;;;8.88;3.75;;;;;;;27.68;43.36;99983.91;9077066;26;20002;-80
2024/04/09 11:22:34;;;;;;;9.02;3.67;;;;;;;27.31;44.77;99980.25;9108228;26;20038;-81
2024/04/09 11:26:37;;;;;;;9.55;3.50;;;;;;;27.53;42.90;99988.59;9107280;26;20002;-81
2024/04/09 11:30:46;;;;;;;13.57;3.40;;;;;;;27.48;40.96;99979.63;9076248;26;20049;-80
2024/04/09 11:34:47;;;;;;;9.05;2.95;;;;;;;27.82;41.18;99970.94;9107642;26;19998;-80
2024/04/09 11:38:49;;;;;;;12.55;3.75;;;;;;;28.33;40.52;99978.03;9075658;26;20002;-81
2024/04/09 11:42:57;;;;;;;10.98;3.58;;;;;;;27.90;39.14;99981.19;9108078;26;20013;-80
2024/04/09 11:46:59;;;;;;;10.83;3.20;;;;;;;27.54;40.83;99975.63;9106153;26;20002;-81
2024/04/09 11:51:00;;;;;;;19.33;4.50;;;;;;;27.45;42.68;99977.50;9106650;26;20014;-81
2024/04/09 11:55:02;;;;;;;18.42;4.18;;;;;;;27.48;42.76;99968.63;9075272;26;20503;-81
2024/04/09 11:59:08;;;;;;;9.77;3.40;;;;;;;25.96;45.10;99969.41;9075886;26;20013;-81
2024/04/09 12:03:10;;;;;;;26.77;4.40;;;;;;;27.20;43.69;99965.06;9107375;26;20010;-81
2024/04/09 12:07:11;;;;;;;14.30;3.78;;;;;;;26.84;44.30;99978.66;9108027;26;20418;-80
2024/04/09 12:11:13;;;;;;;13.45;3.42;;;;;;;27.25;43.25;99974.06;9110073;26;19998;-81
2024/04/09 12:15:16;;;;;;;11.27;3.58;;;;;;;27.61;42.36;99981.56;9107228;26;20035;-81
2024/04/09 12:19:18;;;;;;;20.98;5.22;;;;;;;27.52;42.33;99997.16;9075319;26;20006;-82
2024/04/09 12:23:20;;;;;;;10.52;3.40;;;;;;;27.55;42.33;100002.84;9110127;26;20005;-79
2024/04/09 12:27:22;;;;;;;14.55;4.18;;;;;;;26.90;43.62;100002.16;9107399;26;20026;-80
2024/04/09 12:31:24;;;;;;;16.80;4.80;;;;;;;27.42;44.80;100009.16;9075774;26;20006;-80
2024/04/09 12:35:26;;;;;;;16.35;4.22;;;;;;;27.07;43.76;100007.13;9110722;26;20047;-80
2024/04/09 12:39:30;;;;;;;15.57;4.38;;;;;;;26.26;45.95;100012.03;9152961;26;20005;-80
2024/04/09 12:43:32;;;;;;;26.23;4.22;;;;;;;26.12;46.20;100017.47;9118456;26;20051;-80
2024/04/09 12:47:33;;;;;;;29.00;4.85;;;;;;;26.41;47.43;100026.38;9108985;26;20030;-78
2024/04/09 12:51:35;;;;;;;31.58;5.47;;;;;;;25.81;48.78;100020.63;9110294;26;20014;-79
2024/04/09 12:55:38;;;;;;;9.43;3.65;;;;;;;25.31;49.60;100024.78;9076267;26;20041;-78
2024/04/09 12:59:40;;;;;;;15.98;4.75;;;;;;;25.35;49.72;100033.28;9106016;26;19998;-78
2024/04/09 13:04:01;;;;;;;31.20;5.47;;;;;;;25.58;48.97;100026.13;9105764;26;20006;-79
2024/04/09 13:08:06;;;;;;;21.65;5.68;;;;;;;25.32;50.84;100045.63;9108693;26;20013;-79
2024/04/09 13:12:08;;;;;;;33.42;5.93;;;;;;;25.12;45.06;100063.09;9105145;26;20002;-80
2024/04/09 13:16:10;;;;;;;26.35;5.30;;;;;;;24.90;43.26;100065.47;9069509;26;20080;-80
2024/04/09 13:20:14;;;;;;;59.10;8.60;;;;;;;24.71;42.55;100089.22;9072641;26;20122;-80
2024/04/09 13:24:16;;;;;;;33.88;6.50;;;;;;;24.69;42.22;100092.25;9104600;26;20003;-80
2024/04/09 13:28:18;;;;;;;31.90;4.80;;;;;;;24.67;42.15;100105.41;9103364;26;20002;-79
2024/04/09 13:32:20;;;;;;;30.35;5.35;;;;;;;24.69;42.86;100105.94;9103447;26;20418;-80
2024/04/09 13:36:21;;;;;;;33.60;5.18;;;;;;;24.51;43.15;100134.81;9104422;26;20034;-82
2024/04/09 13:40:23;;;;;;;20.48;5.25;;;;;;;24.16;44.50;100137.72;9073206;26;20002;-81
2024/04/09 13:44:25;;;;;;;26.08;5.43;;;;;;;24.29;45.16;100148.88;9106408;26;20017;-80
2024/04/09 13:48:27;;;;;;;14.38;3.50;;;;;;;23.98;47.03;100166.53;9073803;26;20018;-80
2024/04/09 13:52:28;;;;;;;27.88;3.97;;;;;;;24.03;48.05;100166.50;9107751;26;20124;-79
2024/04/09 13:56:30;;;;;;;28.15;4.28;;;;;;;23.82;49.18;100189.56;9080370;26;19998;-79
2024/04/09 14:00:32;;;;;;;12.52;3.40;;;;;;;23.69;49.45;100188.22;9166546;26;20002;-80
2024/04/09 14:04:34;;;;;;;89.03;9.50;;;;;;;23.45;50.44;100201.63;9108496;26;20067;-80
2024/04/09 14:08:36;;;;;;;29.45;4.68;;;;;;;23.36;50.76;100219.66;9104938;26;20006;-80
2024/04/09 14:12:37;;;;;;;29.75;4.25;;;;;;;22.93;52.36;100256.50;9074498;26;19998;-79
2024/04/09 14:16:39;;;;;;;16.08;3.15;;;;;;;22.56;52.70;100225.53;9075638;26;20006;-80
2024/04/09 14:20:48;;;;;;;10.63;4.22;;;;;;;22.11;53.14;100245.25;9076473;26;20044;-80
2024/04/09 14:24:53;;;;;;;12.20;3.00;;;;;;;21.71;53.99;100254.00;9086803;26;19998;-78
2024/04/09 14:28:54;;;;;;;18.23;3.05;;;;;;;22.06;53.65;100264.34;9115129;26;20017;-80
2024/04/09 14:32:56;;;;;;;9.23;2.92;;;;;;;22.21;53.23;100274.50;9079222;26;19998;-80
2024/04/09 14:36:58;;;;;;;10.98;2.28;;;;;;;22.23;52.08;100267.72;9108346;26;20025;-80
2024/04/09 14:41:00;;;;;;;12.73;2.10;;;;;;;22.16;52.24;100269.00;9076605;26;20043;-80
2024/04/09 14:45:03;;;;;;;11.15;2.08;;;;;;;21.70;53.90;100282.34;9107162;26;20480;-80
2024/04/09 14:49:05;;;;;;;8.35;1.90;;;;;;;21.56;54.18;100254.69;9110110;26;20010;-80
2024/04/09 14:53:07;;;;;;;5.85;1.80;;;;;;;21.56;54.74;100271.06;9074163;26;20034;-80
2024/04/09 14:57:09;;;;;;;8.90;1.73;;;;;;;21.39;56.63;100275.81;9106353;26;20013;-81
2024/04/09 15:01:10;;;;;;;8.10;1.75;;;;;;;21.57;56.17;100290.97;9106778;26;20010;-80
2024/04/09 15:05:13;;;;;;;18.25;2.78;;;;;;;21.38;55.93;100281.53;9112989;26;19998;-82
2024/04/09 15:09:18;;;;;;;8.90;2.17;;;;;;;21.00;56.56;100264.22;9082582;26;20002;-79
2024/04/09 15:13:20;;;;;;;7.22;2.30;;;;;;;21.19;55.77;100248.38;9111801;26;20014;-80
2024/04/09 15:17:24;;;;;;;9.90;2.40;;;;;;;21.19;55.86;100279.16;9110375;26;20009;-80
2024/04/09 15:21:26;;;;;;;6.68;2.20;;;;;;;21.03;56.53;100308.13;9108104;26;20009;-79
2024/04/09 15:25:28;;;;;;;5.75;1.75;;;;;;;20.64;57.96;100339.22;9107570;26;20017;-80
2024/04/09 15:29:30;;;;;;;8.85;2.75;;;;;;;20.89;57.26;100364.06;9107932;26;20017;-81
2024/04/09 15:33:31;;;;;;;4.90;1.88;;;;;;;20.82;57.68;100371.56;9102439;26;20021;-78
2024/04/09 15:37:33;;;;;;;12.63;2.50;;;;;;;20.99;57.72;100374.22;9105359;26;20010;-80
2024/04/09 15:41:35;;;;;;;7.32;2.30;;;;;;;20.89;57.90;100377.66;9069222;26;20402;-80
2024/04/09 15:45:42;;;;;;;10.30;2.80;;;;;;;20.63;59.12;100401.00;9100226;26;20006;-80
2024/04/09 15:49:43;;;;;;;12.20;2.13;;;;;;;20.48;59.01;100384.50;9069486;26;20014;-80
2024/04/09 15:53:47;;;;;;;10.60;2.45;;;;;;;20.74;58.21;100412.88;9118844;26;20006;-80
2024/04/09 15:57:49;;;;;;;9.60;1.98;;;;;;;20.54;58.36;100424.28;9161939;26;20009;-81
2024/04/09 16:01:52;;;;;;;6.05;2.08;;;;;;;20.16;58.57;100435.94;9122701;26;20124;-82
2024/04/09 16:05:53;;;;;;;4.60;2.20;;;;;;;20.17;59.04;100454.72;9103374;26;20462;-81
2024/04/09 16:10:00;;;;;;;3.75;1.65;;;;;;;19.65;60.02;100475.81;9099861;26;20002;-81
2024/04/09 16:14:02;;;;;;;6.05;1.70;;;;;;;19.80;59.92;100508.72;9066120;26;20002;-80
2024/04/09 16:18:04;;;;;;;7.32;2.28;;;;;;;19.97;59.92;100511.47;9098206;26;19998;-80
2024/04/09 16:22:06;;;;;;;9.48;2.15;;;;;;;19.88;60.42;100500.16;9101077;26;20051;-79
2024/04/09 16:26:08;;;;;;;6.75;1.77;;;;;;;19.66;61.14;100517.41;9103731;26;20013;-78
2024/04/09 16:30:11;;;;;;;8.98;2.28;;;;;;;19.92;60.90;100529.56;9103960;26;20012;-79
2024/04/09 16:34:13;;;;;;;8.50;2.05;;;;;;;19.62;61.31;100519.78;9099523;26;19998;-79
2024/04/09 16:38:15;;;;;;;7.53;3.00;;;;;;;20.13;60.41;100518.84;9097832;26;20006;-80
2024/04/09 16:42:17;;;;;;;6.70;2.90;;;;;;;20.22;60.23;100535.56;9097911;26;20334;-79
2024/04/09 16:46:18;;;;;;;3.88;2.55;;;;;;;19.71;62.00;100537.34;9101167;26;20018;-79
2024/04/09 16:50:21;;;;;;;10.00;3.00;;;;;;;19.93;61.84;100533.94;9096218;26;19995;-79
2024/04/09 16:54:23;;;;;;;9.32;2.25;;;;;;;19.66;62.62;100541.84;9097202;26;20020;-78
2024/04/09 16:58:25;;;;;;;37.20;2.80;;;;;;;19.31;65.18;100564.47;9064434;26;20439;-79
2024/04/09 17:02:27;;;;;;;8.23;2.85;;;;;;;19.15;65.62;100593.19;9096402;26;20337;-79
2024/04/09 17:06:30;;;;;;;4.75;2.40;;;;;;;19.33;65.38;100592.22;9048937;26;20007;-80
2024/04/09 17:10:31;;;;;;;8.52;2.67;;;;;;;19.48;65.35;100606.13;9052499;26;19998;-79
2024/04/09 17:14:34;;;;;;;8.00;2.15;;;;;;;18.79;69.81;100620.53;9095172;26;20482;-78
2024/04/09 17:18:36;;;;;;;3.42;1.80;;;;;;;17.80;74.14;100649.00;9093328;26;20006;-78
2024/04/09 17:22:38;;;;;;;2.17;1.52;;;;;;;17.55;73.55;100651.78;9090308;26;20002;-77
2024/04/09 17:26:41;;;;;;;3.75;1.58;;;;;;;17.05;71.19;100678.91;9089221;26;20017;-79
2024/04/09 17:30:43;;;;;;;2.97;1.27;;;;;;;16.95;67.83;100686.69;9092256;26;20030;-78
2024/04/09 17:34:45;;;;;;;2.60;1.60;;;;;;;16.68;66.42;100705.00;9060573;26;19998;-78
2024/04/09 17:38:47;;;;;;;3.03;1.27;;;;;;;16.45;67.10;100700.09;9059434;26;20003;-78
2024/04/09 17:42:50;;;;;;;1.40;0.95;;;;;;;16.25;63.65;100719.94;9105275;26;20014;-78
2024/04/09 17:46:52;;;;;;;1.70;1.10;;;;;;;15.96;63.40;100723.16;9080220;26;20020;-78
2024/04/09 17:50:56;;;;;;;3.47;1.42;;;;;;;15.29;63.42;100725.13;9090339;26;19998;-78
2024/04/09 17:54:58;;;;;;;4.05;1.50;;;;;;;15.25;63.60;100709.53;9089320;26;20006;-76
2024/04/09 17:59:00;;;;;;;6.75;2.05;;;;;;;15.44;63.24;100749.19;9085780;26;20002;-77
2024/04/09 18:03:02;;;;;;;2.30;1.40;;;;;;;15.28;62.89;100782.84;9084122;26;20017;-77
2024/04/09 18:07:07;;;;;;;7.90;1.30;;;;;;;14.97;63.46;100769.94;9084957;26;20035;-77
2024/04/09 18:11:08;;;;;;;2.42;1.27;;;;;;;15.04;62.68;100813.13;9084899;26;21467;-77
2024/04/09 18:15:10;;;;;;;1.35;1.00;;;;;;;14.74;63.14;100812.59;9083346;26;20016;-79
2024/04/09 18:19:12;;;;;;;2.08;1.38;;;;;;;14.86;63.07;100829.88;9055453;26;20327;-77
2024/04/09 18:23:15;;;;;;;2.78;1.30;;;;;;;14.95;63.66;100849.44;9089078;26;20006;-78
2024/04/09 18:27:18;;;;;;;3.00;1.35;;;;;;;14.83;63.66;100870.75;9087363;26;19998;-77
2024/04/09 18:31:20;;;;;;;3.53;1.58;;;;;;;15.29;62.67;100880.84;9090103;26;20016;-77
2024/04/09 18:35:22;;;;;;;7.05;1.70;;;;;;;15.18;62.96;100881.44;9091392;26;20034;-78
2024/04/09 18:39:23;;;;;;;2.00;1.00;;;;;;;14.72;62.71;100885.63;9091965;26;20357;-76